Time;durP1;ratioP1;P1;durP2;ratioP2;P2;SDS_P1;SDS_P2;PMS_P1;PMS_P2;Temp;Humidity;BMP_temperature;BMP_pressure;BME280_temperature;BME280_humidity;BME280_pressure;Samples;Min_cycle;Max_cycle;Signal;HPM_P1;HPM_P2
2023/04/20 00:02:14;;;;;;;2.22;1.45;;;15.80;58.10;;;;;;10290302;28;20149;-57
2023/04/20 00:07:15;;;;;;;2.20;1.30;;;15.80;58.10;;;;;;10289697;28;20672;-57
2023/04/20 00:12:16;;;;;;;2.00;1.50;;;15.80;58.10;;;;;;10290029;28;20074;-57
2023/04/20 00:17:17;;;;;;;2.10;1.27;;;15.70;58.00;;;;;;10289809;28;20127;-56
2023/04/20 00:22:18;;;;;;;2.30;1.30;;;15.80;58.00;;;;;;10289841;28;20038;-58
2023/04/20 00:27:18;;;;;;;4.72;1.65;;;15.70;57.90;;;;;;10282767;28;20058;-57
2023/04/20 00:32:19;;;;;;;2.03;1.50;;;15.70;57.90;;;;;;10270723;28;20143;-58
2023/04/20 00:37:20;;;;;;;2.55;1.42;;;15.70;57.90;;;;;;10288791;28;20019;-58
2023/04/20 00:42:20;;;;;;;2.28;1.40;;;15.70;57.80;;;;;;10288743;28;20121;-56
2023/04/20 00:47:21;;;;;;;3.05;1.65;;;15.70;57.90;;;;;;10270906;28;20141;-57
2023/04/20 00:52:22;;;;;;;2.65;1.65;;;15.70;57.80;;;;;;10288298;28;20102;-56
2023/04/20 00:57:23;;;;;;;2.00;1.17;;;15.70;57.70;;;;;;10270521;28;20035;-57
2023/04/20 01:02:24;;;;;;;3.70;1.92;;;15.60;57.60;;;;;;10287890;28;20038;-56
2023/04/20 01:07:24;;;;;;;1.98;1.10;;;15.60;57.50;;;;;;10270524;28;20027;-57
2023/04/20 01:12:25;;;;;;;2.40;1.40;;;15.60;57.40;;;;;;10287423;28;20103;-58
2023/04/20 01:17:26;;;;;;;1.88;1.38;;;15.60;57.60;;;;;;10270334;28;20019;-58
2023/04/20 01:22:27;;;;;;;3.65;1.63;;;15.60;57.50;;;;;;10287592;28;20023;-56
2023/04/20 01:27:27;;;;;;;1.95;1.30;;;15.60;57.50;;;;;;10287107;28;20480;-58
2023/04/20 01:32:28;;;;;;;3.60;1.83;;;15.60;57.50;;;;;;10286836;28;20106;-57
2023/04/20 01:37:29;;;;;;;2.40;1.52;;;15.60;57.60;;;;;;10286778;28;20121;-57
2023/04/20 01:42:30;;;;;;;1.90;1.35;;;15.50;57.50;;;;;;10286098;28;20119;-57
2023/04/20 01:47:31;;;;;;;3.80;1.33;;;15.50;57.50;;;;;;10268668;28;20039;-58
2023/04/20 01:52:31;;;;;;;3.78;1.75;;;15.50;57.50;;;;;;10286026;28;20030;-57
2023/04/20 01:57:32;;;;;;;2.38;1.25;;;15.50;58.20;;;;;;10255680;28;20046;-58
2023/04/20 02:02:33;;;;;;;2.80;1.50;;;15.50;57.60;;;;;;10285985;28;20430;-58
2023/04/20 02:07:33;;;;;;;2.45;1.63;;;15.50;57.70;;;;;;10285550;28;20027;-57
2023/04/20 02:12:35;;;;;;;2.28;1.40;;;15.50;57.60;;;;;;10285464;28;20026;-57
2023/04/20 02:17:36;;;;;;;1.85;1.20;;;15.50;57.50;;;;;;10285354;28;20022;-58
2023/04/20 02:22:37;;;;;;;2.15;1.45;;;15.50;57.70;;;;;;10284989;28;20061;-58
2023/04/20 02:27:37;;;;;;;2.35;1.40;;;15.50;58.40;;;;;;10284865;28;20069;-57
2023/04/20 02:32:38;;;;;;;2.75;1.42;;;15.50;57.70;;;;;;10284613;28;20098;-58
2023/04/20 02:37:39;;;;;;;2.63;1.30;;;15.50;57.70;;;;;;10284622;28;20023;-58
2023/04/20 02:42:40;;;;;;;2.72;1.70;;;15.40;57.80;;;;;;10284365;28;20462;-58
2023/04/20 02:47:41;;;;;;;2.58;1.35;;;15.40;57.80;;;;;;10284245;28;20395;-57
2023/04/20 02:52:41;;;;;;;2.30;1.35;;;15.40;57.80;;;;;;10282228;28;20053;-58
2023/04/20 02:57:42;;;;;;;2.35;1.40;;;15.40;57.70;;;;;;10282862;28;20070;-56
2023/04/20 03:02:43;;;;;;;3.92;2.30;;;15.40;57.90;;;;;;10281386;28;20121;-57
2023/04/20 03:07:43;;;;;;;1.70;1.17;;;15.40;57.90;;;;;;10281295;28;20050;-58
2023/04/20 03:12:44;;;;;;;2.53;1.50;;;15.40;57.90;;;;;;10263050;28;20015;-58
2023/04/20 03:17:45;;;;;;;2.40;1.60;;;15.40;58.00;;;;;;10277227;28;20097;-58
2023/04/20 03:22:46;;;;;;;3.20;1.63;;;15.40;58.10;;;;;;10278274;28;20026;-58
2023/04/20 03:27:47;;;;;;;2.15;1.70;;;15.40;58.20;;;;;;10264799;28;20384;-57
2023/04/20 03:32:47;;;;;;;1.85;1.45;;;15.40;58.10;;;;;;10281742;28;20015;-57
2023/04/20 03:37:48;;;;;;;2.88;1.58;;;15.40;58.20;;;;;;10280240;28;20114;-57
2023/04/20 03:42:49;;;;;;;1.95;1.35;;;15.30;58.10;;;;;;10280830;28;20516;-58
2023/04/20 03:47:50;;;;;;;2.35;1.35;;;15.30;58.70;;;;;;10281772;28;20181;-57
2023/04/20 03:52:51;;;;;;;2.35;1.42;;;15.40;58.30;;;;;;10263464;28;20195;-57
2023/04/20 03:57:53;;;;;;;3.42;1.55;;;15.40;58.30;;;;;;10281275;28;20027;-57
2023/04/20 04:02:54;;;;;;;2.65;1.40;;;15.40;58.60;;;;;;10281181;28;20043;-56
2023/04/20 04:07:54;;;;;;;2.28;1.60;;;15.60;57.90;;;;;;10286793;28;20122;-57
2023/04/20 04:12:55;;;;;;;2.70;1.55;;;15.70;56.40;;;;;;10289783;28;20122;-57
2023/04/20 04:17:56;;;;;;;2.17;1.45;;;15.90;56.70;;;;;;10290022;28;20505;-57
2023/04/20 04:22:57;;;;;;;2.20;1.10;;;16.00;55.50;;;;;;10272770;28;20114;-57
2023/04/20 04:27:58;;;;;;;1.83;1.23;;;16.20;55.90;;;;;;10287968;28;20039;-57
2023/04/20 04:32:58;;;;;;;1.90;1.25;;;16.20;55.80;;;;;;10287477;28;20090;-56
2023/04/20 04:37:59;;;;;;;2.97;1.50;;;16.20;55.90;;;;;;10286457;28;20166;-57
2023/04/20 04:43:00;;;;;;;2.17;1.58;;;16.10;56.10;;;;;;10287274;28;20027;-58
2023/04/20 04:48:01;;;;;;;2.42;1.50;;;16.10;56.40;;;;;;10271209;28;20125;-56
2023/04/20 04:53:02;;;;;;;11.38;2.17;;;16.00;56.70;;;;;;10288608;28;20652;-58
2023/04/20 04:58:03;;;;;;;13.25;3.08;;;16.00;58.00;;;;;;10260131;28;20062;-57
2023/04/20 05:03:03;;;;;;;13.77;2.67;;;16.10;58.30;;;;;;10287745;28;20109;-56
2023/04/20 05:08:04;;;;;;;19.65;4.13;;;16.20;58.90;;;;;;10283490;28;20457;-56
2023/04/20 05:13:05;;;;;;;16.88;3.47;;;16.20;58.30;;;;;;10285562;28;20431;-56
2023/04/20 05:18:06;;;;;;;12.57;2.53;;;16.20;60.30;;;;;;10268581;28;20106;-58
2023/04/20 05:23:06;;;;;;;20.33;3.13;;;16.30;60.10;;;;;;10287119;28;20106;-58
2023/04/20 05:28:07;;;;;;;14.38;3.58;;;16.30;60.20;;;;;;10286888;28;20037;-59
2023/04/20 05:33:08;;;;;;;10.30;2.47;;;16.20;60.30;;;;;;10286565;28;20098;-56
2023/04/20 05:38:09;;;;;;;20.73;4.97;;;16.10;60.40;;;;;;10282382;28;20029;-55
2023/04/20 05:43:09;;;;;;;19.15;4.70;;;16.10;59.50;;;;;;10271289;28;20106;-56
2023/04/20 05:48:10;;;;;;;26.88;5.47;;;16.00;59.60;;;;;;10267585;28;20039;-57
2023/04/20 05:53:11;;;;;;;18.13;3.13;;;16.10;60.50;;;;;;10261422;28;20040;-57
2023/04/20 05:58:11;;;;;;;10.50;2.83;;;16.00;60.00;;;;;;10282711;28;20181;-57
2023/04/20 06:03:12;;;;;;;11.95;2.95;;;15.90;60.00;;;;;;10281431;28;20031;-57
2023/04/20 06:08:13;;;;;;;8.50;2.40;;;15.90;59.70;;;;;;10279058;28;20113;-54
2023/04/20 06:13:13;;;;;;;8.63;3.20;;;15.90;59.80;;;;;;10280339;28;20117;-56
2023/04/20 06:18:14;;;;;;;11.80;3.33;;;15.80;60.20;;;;;;10277209;28;20031;-56
2023/04/20 06:23:15;;;;;;;9.23;2.80;;;15.80;60.10;;;;;;10256054;28;20035;-57
2023/04/20 06:28:16;;;;;;;4.45;2.95;;;15.70;59.70;;;;;;10262903;28;20039;-56
2023/04/20 06:33:16;;;;;;;7.65;3.25;;;15.80;59.70;;;;;;10282662;28;20098;-55
2023/04/20 06:38:17;;;;;;;6.70;2.20;;;15.70;59.60;;;;;;10267132;28;20113;-55
2023/04/20 06:43:18;;;;;;;6.93;2.17;;;15.70;59.80;;;;;;10281869;28;20089;-55
2023/04/20 06:48:18;;;;;;;10.50;3.45;;;15.70;59.50;;;;;;10264957;28;20073;-56
2023/04/20 06:53:19;;;;;;;7.75;2.08;;;15.70;59.50;;;;;;10281745;28;20087;-57
2023/04/20 06:58:20;;;;;;;4.72;2.08;;;15.70;59.50;;;;;;10280872;28;20117;-55
2023/04/20 07:03:21;;;;;;;9.05;2.40;;;15.70;59.30;;;;;;10281334;28;20525;-56
2023/04/20 07:08:22;;;;;;;5.78;2.10;;;15.70;59.20;;;;;;10280725;28;20129;-56
2023/04/20 07:13:22;;;;;;;5.43;2.20;;;15.70;59.20;;;;;;10281492;28;20034;-56
2023/04/20 07:18:23;;;;;;;5.60;2.20;;;15.60;59.20;;;;;;10281069;28;20101;-55
2023/04/20 07:23:24;;;;;;;4.57;2.50;;;15.70;59.20;;;;;;10280820;28;20174;-55
2023/04/20 07:28:25;;;;;;;4.13;2.53;;;15.70;58.80;;;;;;10280718;28;20118;-56
2023/04/20 07:33:26;;;;;;;5.35;2.30;;;15.70;58.50;;;;;;10280326;28;20098;-55
2023/04/20 07:38:27;;;;;;;6.95;2.50;;;15.70;58.40;;;;;;10280480;28;20027;-55
2023/04/20 07:43:28;;;;;;;5.50;2.03;;;15.70;58.40;;;;;;10269617;28;20102;-56
2023/04/20 07:48:28;;;;;;;5.72;2.72;;;15.70;58.50;;;;;;10288291;28;20549;-56
2023/04/20 07:53:29;;;;;;;3.33;2.50;;;15.70;58.40;;;;;;10270802;28;20086;-56
2023/04/20 07:58:30;;;;;;;5.47;2.50;;;15.70;58.50;;;;;;10287771;28;20026;-55
2023/04/20 08:03:32;;;;;;;5.22;3.00;;;15.70;58.50;;;;;;10287759;28;20366;-56
2023/04/20 08:08:32;;;;;;;4.60;2.15;;;15.70;58.30;;;;;;10288018;28;20034;-55
2023/04/20 08:13:35;;;;;;;6.65;2.45;;;15.70;58.10;;;;;;10287203;28;20035;-55
2023/04/20 08:18:36;;;;;;;5.03;2.72;;;15.70;58.30;;;;;;10287126;28;20038;-55
2023/04/20 08:23:36;;;;;;;4.13;2.40;;;15.70;58.30;;;;;;10286982;28;20074;-56
2023/04/20 08:28:37;;;;;;;4.88;2.35;;;15.70;57.90;;;;;;10286352;28;20081;-56
2023/04/20 08:33:38;;;;;;;3.60;2.40;;;15.70;57.90;;;;;;10287059;28;20054;-55
2023/04/20 08:38:38;;;;;;;5.45;2.38;;;15.70;57.80;;;;;;10286277;28;20054;-55
2023/04/20 08:43:40;;;;;;;5.50;2.63;;;15.70;58.30;;;;;;10286406;28;20045;-54
2023/04/20 08:48:44;;;;;;;3.47;2.50;;;15.70;58.40;;;;;;10268817;28;20078;-55
2023/04/20 08:53:44;;;;;;;3.47;1.95;;;15.70;58.20;;;;;;10284886;28;20135;-55
2023/04/20 08:58:45;;;;;;;3.45;2.45;;;15.70;58.40;;;;;;10286247;28;20183;-56
2023/04/20 09:03:46;;;;;;;3.42;2.30;;;15.70;58.40;;;;;;10268619;28;20454;-55
2023/04/20 09:08:47;;;;;;;3.03;2.30;;;15.70;58.50;;;;;;10285052;28;20125;-54
2023/04/20 09:14:08;;;;;;;3.30;2.10;;;15.60;58.60;;;;;;10267545;28;20023;-56
2023/04/20 09:19:09;;;;;;;4.15;2.60;;;15.60;58.60;;;;;;10268845;28;20051;-54
2023/04/20 09:24:10;;;;;;;4.70;2.55;;;15.60;58.60;;;;;;10284752;28;20534;-54
2023/04/20 09:29:19;;;;;;;4.13;2.20;;;15.60;58.10;;;;;;10284737;28;20058;-54
2023/04/20 09:34:21;;;;;;;4.00;2.42;;;15.70;58.50;;;;;;10285009;28;20091;-55
2023/04/20 09:39:23;;;;;;;5.85;2.53;;;15.70;58.80;;;;;;10285026;28;20026;-56
2023/04/20 09:44:23;;;;;;;3.92;2.28;;;15.70;58.70;;;;;;10284134;28;20029;-55
2023/04/20 09:49:25;;;;;;;3.08;2.00;;;15.70;58.50;;;;;;10266771;28;20041;-55
2023/04/20 09:54:27;;;;;;;3.70;3.17;;;15.70;58.60;;;;;;10267159;28;20098;-55
2023/04/20 09:59:32;;;;;;;4.32;2.55;;;15.70;58.80;;;;;;10266706;28;20027;-56
2023/04/20 10:04:32;;;;;;;3.25;2.05;;;15.70;59.00;;;;;;10266690;28;20608;-55
2023/04/20 10:09:33;;;;;;;2.70;2.03;;;15.70;59.00;;;;;;10265697;28;20130;-56
2023/04/20 10:14:34;;;;;;;2.78;1.95;;;15.70;59.20;;;;;;10283672;28;20054;-56
2023/04/20 10:19:43;;;;;;;5.25;2.40;;;15.70;59.00;;;;;;10283623;28;20054;-56
2023/04/20 10:24:44;;;;;;;3.23;2.50;;;15.70;58.80;;;;;;10265528;28;20074;-56
2023/04/20 10:29:45;;;;;;;5.93;2.95;;;15.70;58.50;;;;;;10281529;28;20481;-56
2023/04/20 10:34:45;;;;;;;3.92;2.13;;;15.70;58.00;;;;;;10282953;28;20133;-54
2023/04/20 10:39:47;;;;;;;3.20;2.30;;;15.70;58.00;;;;;;10282673;28;20097;-55
2023/04/20 10:44:53;;;;;;;4.68;2.80;;;15.70;58.00;;;;;;10282722;28;20080;-54
2023/04/20 10:49:53;;;;;;;3.42;2.17;;;15.80;58.20;;;;;;10282972;28;20117;-56
2023/04/20 10:54:54;;;;;;;3.85;2.47;;;15.70;58.20;;;;;;10281913;28;20023;-55
2023/04/20 10:59:55;;;;;;;3.63;2.17;;;15.70;58.30;;;;;;10282073;28;20088;-55
2023/04/20 11:04:59;;;;;;;3.33;2.20;;;15.70;58.30;;;;;;10264227;28;20105;-54
2023/04/20 11:10:00;;;;;;;4.57;2.20;;;15.70;58.40;;;;;;10265205;28;20035;-56
2023/04/20 11:15:01;;;;;;;3.78;2.38;;;15.70;58.40;;;;;;10280663;28;20057;-54
2023/04/20 11:20:11;;;;;;;2.92;2.15;;;15.70;58.60;;;;;;10281852;28;20037;-56
2023/04/20 11:25:12;;;;;;;2.67;1.95;;;15.70;58.40;;;;;;10280980;28;20038;-56
2023/04/20 11:30:13;;;;;;;2.88;2.17;;;15.70;58.40;;;;;;10281261;28;20497;-54
2023/04/20 11:35:13;;;;;;;3.33;2.00;;;15.70;58.30;;;;;;10281456;28;20466;-56
2023/04/20 11:40:14;;;;;;;3.90;2.22;;;15.70;58.40;;;;;;10279476;28;20089;-55
2023/04/20 11:45:15;;;;;;;2.60;1.80;;;15.70;58.30;;;;;;10280610;28;20049;-55
2023/04/20 11:50:16;;;;;;;4.13;2.63;;;15.70;58.10;;;;;;10281027;28;20027;-56
2023/04/20 11:55:16;;;;;;;2.45;1.80;;;15.70;58.00;;;;;;10263242;28;20726;-56
2023/04/20 12:00:18;;;;;;;3.45;2.22;;;15.70;58.00;;;;;;10281122;28;20019;-56
2023/04/20 12:05:19;;;;;;;4.43;2.38;;;15.70;58.40;;;;;;10280843;28;20022;-57
2023/04/20 12:10:20;;;;;;;4.07;2.35;;;15.60;58.30;;;;;;10280507;28;20486;-55
2023/04/20 12:15:20;;;;;;;3.47;2.20;;;15.60;58.70;;;;;;10279415;28;20027;-55
2023/04/20 12:20:21;;;;;;;2.58;2.28;;;15.60;58.40;;;;;;10262949;28;20441;-54
2023/04/20 12:25:22;;;;;;;3.20;2.33;;;15.60;58.70;;;;;;10280091;28;20015;-55
2023/04/20 12:30:23;;;;;;;3.67;2.35;;;15.60;58.70;;;;;;10285924;28;20025;-56
2023/04/20 12:35:23;;;;;;;3.30;2.40;;;15.60;57.90;;;;;;10270182;28;20030;-56
2023/04/20 12:40:24;;;;;;;5.57;2.25;;;15.70;57.70;;;;;;10286916;28;20121;-56
2023/04/20 12:45:25;;;;;;;2.83;1.88;;;15.70;57.90;;;;;;10286645;28;20490;-56
2023/04/20 12:50:26;;;;;;;2.95;1.90;;;15.60;58.10;;;;;;10286431;28;20029;-55
2023/04/20 12:55:26;;;;;;;3.10;2.53;;;15.60;58.40;;;;;;10286342;28;20470;-54
2023/04/20 13:00:27;;;;;;;4.53;2.65;;;15.60;57.70;;;;;;10286768;28;20022;-56
2023/04/20 13:05:28;;;;;;;2.65;2.42;;;15.60;57.60;;;;;;10285974;28;20125;-55
2023/04/20 13:10:29;;;;;;;4.97;3.25;;;15.70;57.70;;;;;;10286114;28;20022;-55
2023/04/20 13:15:30;;;;;;;3.03;2.20;;;15.70;57.50;;;;;;10285729;28;20015;-56
2023/04/20 13:20:31;;;;;;;3.05;1.90;;;15.70;58.80;;;;;;10284687;28;20094;-56
2023/04/20 13:25:32;;;;;;;3.67;2.10;;;15.60;59.00;;;;;;10284993;28;20085;-55
2023/04/20 13:30:33;;;;;;;3.58;2.03;;;15.60;59.00;;;;;;10267571;28;20019;-55
2023/04/20 13:35:33;;;;;;;4.18;2.70;;;15.60;59.00;;;;;;10267571;28;20045;-56
2023/04/20 13:40:34;;;;;;;4.35;2.50;;;15.70;57.70;;;;;;10284051;28;20422;-56
2023/04/20 13:45:35;;;;;;;3.00;2.50;;;15.60;58.40;;;;;;10284656;28;20162;-56
2023/04/20 13:50:36;;;;;;;3.00;2.13;;;15.70;59.00;;;;;;10284744;28;20123;-54
2023/04/20 13:55:36;;;;;;;3.33;2.45;;;15.60;58.80;;;;;;10284461;28;20113;-55
2023/04/20 14:00:37;;;;;;;3.95;2.50;;;15.60;58.30;;;;;;10284250;28;20058;-55
2023/04/20 14:05:38;;;;;;;4.68;3.15;;;15.70;57.40;;;;;;10283821;28;20031;-54
2023/04/20 14:10:39;;;;;;;4.18;2.58;;;15.70;57.50;;;;;;10283618;28;20382;-55
2023/04/20 14:15:40;;;;;;;2.90;2.00;;;15.70;57.70;;;;;;10283663;28;20406;-56
2023/04/20 14:20:41;;;;;;;2.58;2.05;;;15.80;58.00;;;;;;10283081;28;20118;-56
2023/04/20 14:25:41;;;;;;;3.50;2.45;;;15.80;58.00;;;;;;10282455;28;20585;-56
2023/04/20 14:30:44;;;;;;;4.68;3.03;;;15.70;57.90;;;;;;10283042;28;20512;-55
2023/04/20 14:35:45;;;;;;;3.63;2.28;;;15.70;57.90;;;;;;10282995;28;20320;-56
2023/04/20 14:40:47;;;;;;;3.28;2.60;;;15.70;58.00;;;;;;10282245;28;20429;-56
2023/04/20 14:45:49;;;;;;;3.92;2.30;;;15.80;58.10;;;;;;10282568;28;20062;-55
2023/04/20 14:50:49;;;;;;;2.92;2.30;;;15.80;58.20;;;;;;10281229;28;20023;-55
2023/04/20 14:55:50;;;;;;;2.92;2.40;;;15.80;58.10;;;;;;10281751;28;20101;-57
2023/04/20 15:00:52;;;;;;;3.65;2.80;;;15.70;58.00;;;;;;10281880;28;20125;-55
2023/04/20 15:06:01;;;;;;;3.60;2.60;;;15.70;58.20;;;;;;10281617;28;20034;-55
2023/04/20 15:11:03;;;;;;;4.40;2.97;;;15.70;58.10;;;;;;10264743;28;20459;-55
2023/04/20 15:16:04;;;;;;;4.03;2.33;;;15.70;58.20;;;;;;10282184;28;20027;-56
2023/04/20 15:21:07;;;;;;;3.20;2.40;;;15.70;58.10;;;;;;10281189;28;20122;-55
2023/04/20 15:26:08;;;;;;;4.43;2.72;;;15.70;58.30;;;;;;10280860;28;20117;-54
2023/04/20 15:31:08;;;;;;;4.25;2.78;;;15.70;58.30;;;;;;10279563;28;20478;-56
2023/04/20 15:36:09;;;;;;;3.75;2.63;;;15.60;58.30;;;;;;10281387;28;20119;-55
2023/04/20 15:41:10;;;;;;;2.83;2.20;;;15.70;58.20;;;;;;10261376;28;20045;-55
2023/04/20 15:46:10;;;;;;;3.45;2.28;;;15.70;58.20;;;;;;10271465;28;20039;-55
2023/04/20 15:51:11;;;;;;;3.03;2.28;;;15.80;58.40;;;;;;10279491;28;20157;-55
2023/04/20 15:56:12;;;;;;;3.72;2.92;;;15.80;58.00;;;;;;10280298;28;20557;-56
2023/04/20 16:01:12;;;;;;;11.00;2.90;;;15.90;58.10;;;;;;10283736;28;20054;-54
2023/04/20 16:06:13;;;;;;;7.65;4.00;;;15.90;59.00;;;;;;10289532;28;20106;-54
2023/04/20 16:11:14;;;;;;;13.50;3.70;;;16.00;61.70;;;;;;10282110;28;20493;-54
2023/04/20 16:16:15;;;;;;;11.60;4.07;;;16.20;62.40;;;;;;10289590;28;20367;-56
2023/04/20 16:21:15;;;;;;;11.80;4.25;;;16.40;61.70;;;;;;10287966;28;20022;-56
2023/04/20 16:26:16;;;;;;;12.52;3.55;;;16.40;61.70;;;;;;10271565;28;20110;-54
2023/04/20 16:31:17;;;;;;;17.63;4.72;;;16.50;61.70;;;;;;10288900;28;20050;-55
2023/04/20 16:36:18;;;;;;;13.82;4.93;;;16.50;61.30;;;;;;10271308;28;20026;-55
2023/04/20 16:41:18;;;;;;;18.70;5.80;;;16.40;61.20;;;;;;10288490;28;20797;-56
2023/04/20 16:46:21;;;;;;;14.93;4.57;;;16.40;60.90;;;;;;10288579;28;20507;-56
2023/04/20 16:51:21;;;;;;;21.75;6.22;;;16.30;60.90;;;;;;10286871;28;20505;-57
2023/04/20 16:56:22;;;;;;;24.00;5.28;;;16.30;61.30;;;;;;10286913;28;20029;-54
2023/04/20 17:01:22;;;;;;;32.97;6.30;;;16.40;61.20;;;;;;10286245;28;20105;-56
2023/04/20 17:06:23;;;;;;;21.15;6.38;;;16.40;61.00;;;;;;10285965;28;20027;-57
2023/04/20 17:11:25;;;;;;;16.27;4.85;;;16.30;60.60;;;;;;10286692;28;20047;-57
2023/04/20 17:16:25;;;;;;;14.75;5.05;;;16.10;61.20;;;;;;10268676;28;20375;-56
2023/04/20 17:21:27;;;;;;;15.63;5.15;;;16.10;61.10;;;;;;10285890;28;20054;-55
2023/04/20 17:26:28;;;;;;;42.42;8.10;;;16.00;61.50;;;;;;10269676;28;20050;-53
2023/04/20 17:31:31;;;;;;;17.83;5.30;;;15.90;61.50;;;;;;10286572;28;20098;-56
2023/04/20 17:36:33;;;;;;;10.70;4.18;;;15.90;61.50;;;;;;10253829;28;20031;-55
2023/04/20 17:41:34;;;;;;;7.15;4.63;;;15.90;61.20;;;;;;10284972;28;20410;-56
2023/04/20 17:46:35;;;;;;;15.45;4.78;;;15.90;61.00;;;;;;10286452;28;20047;-55
2023/04/20 17:51:35;;;;;;;8.05;3.85;;;15.80;60.70;;;;;;10285678;28;20043;-55
2023/04/20 17:56:36;;;;;;;10.90;5.10;;;15.80;60.60;;;;;;10285911;28;20073;-53
2023/04/20 18:01:37;;;;;;;12.48;4.97;;;15.80;60.70;;;;;;10285509;28;20023;-56
2023/04/20 18:06:38;;;;;;;11.60;4.60;;;15.80;60.70;;;;;;10286496;28;20085;-54
2023/04/20 18:11:39;;;;;;;10.77;5.20;;;15.70;60.50;;;;;;10281292;28;20135;-56
2023/04/20 18:16:40;;;;;;;9.18;3.70;;;15.80;60.60;;;;;;10281246;28;20031;-52
2023/04/20 18:21:40;;;;;;;12.85;4.40;;;15.80;60.60;;;;;;10284321;28;20108;-54
2023/04/20 18:26:41;;;;;;;9.63;4.63;;;15.80;60.30;;;;;;10293475;28;20081;-51
2023/04/20 18:31:46;;;;;;;8.15;4.30;;;15.80;59.80;;;;;;10283758;28;20031;-55
2023/04/20 18:36:46;;;;;;;11.00;4.68;;;15.80;60.30;;;;;;10282294;28;20027;-55
2023/04/20 18:41:47;;;;;;;8.13;3.67;;;15.80;60.20;;;;;;10283681;28;20166;-53
2023/04/20 18:46:48;;;;;;;9.82;4.72;;;15.80;60.20;;;;;;10283286;28;20134;-54
2023/04/20 18:51:48;;;;;;;8.85;4.13;;;15.80;60.20;;;;;;10283145;28;20038;-55
2023/04/20 18:56:50;;;;;;;6.00;3.40;;;15.80;60.30;;;;;;10281738;28;20046;-56
2023/04/20 19:01:51;;;;;;;9.25;4.38;;;15.80;60.20;;;;;;10287618;28;20026;-56
2023/04/20 19:06:51;;;;;;;11.27;3.92;;;15.90;60.20;;;;;;10277913;28;20042;-56
2023/04/20 19:11:52;;;;;;;7.18;4.03;;;15.90;60.00;;;;;;10284613;28;20051;-53
2023/04/20 19:16:53;;;;;;;8.27;4.35;;;16.00;60.30;;;;;;10265121;28;20066;-56
2023/04/20 19:21:53;;;;;;;12.85;4.80;;;16.00;60.10;;;;;;10276805;28;20111;-56
2023/04/20 19:26:54;;;;;;;7.72;3.63;;;15.90;60.40;;;;;;10263750;28;20090;-56
2023/04/20 19:31:55;;;;;;;7.38;4.55;;;15.80;60.60;;;;;;10280396;28;20011;-55
2023/04/20 19:36:55;;;;;;;7.00;3.95;;;15.70;60.80;;;;;;10281693;28;20514;-56
2023/04/20 19:41:56;;;;;;;6.90;4.38;;;15.70;60.90;;;;;;10287180;28;20042;-57
2023/04/20 19:46:57;;;;;;;3.53;2.28;;;15.60;60.30;;;;;;10285622;28;20043;-57
2023/04/20 19:51:57;;;;;;;4.57;2.42;;;15.60;59.90;;;;;;10286163;28;20110;-56
2023/04/20 19:56:58;;;;;;;4.25;2.70;;;15.60;59.80;;;;;;10268531;28;20023;-56
2023/04/20 20:01:59;;;;;;;3.42;2.22;;;15.50;59.80;;;;;;10287723;28;20038;-57
2023/04/20 20:07:00;;;;;;;4.25;3.25;;;15.60;59.80;;;;;;10271475;28;20035;-56
2023/04/20 20:12:03;;;;;;;5.97;3.42;;;15.50;59.50;;;;;;10288762;28;20058;-57
2023/04/20 20:17:04;;;;;;;4.63;3.53;;;15.50;59.60;;;;;;10289210;28;20037;-57
2023/04/20 20:22:04;;;;;;;4.63;3.42;;;15.50;59.80;;;;;;10288802;28;20034;-56
2023/04/20 20:27:05;;;;;;;4.28;3.53;;;15.50;59.80;;;;;;10288377;28;20073;-55
2023/04/20 20:32:06;;;;;;;4.80;3.58;;;15.50;59.60;;;;;;10287430;28;20554;-56
2023/04/20 20:37:09;;;;;;;4.55;3.40;;;15.50;59.70;;;;;;10288490;28;20553;-56
2023/04/20 20:42:11;;;;;;;5.55;3.40;;;15.40;59.80;;;;;;10288163;28;20030;-55
2023/04/20 20:47:12;;;;;;;5.55;3.60;;;15.40;59.70;;;;;;10287107;28;20038;-56
2023/04/20 20:52:12;;;;;;;3.92;3.20;;;15.40;59.80;;;;;;10285107;28;20509;-56
2023/04/20 20:57:13;;;;;;;4.80;3.30;;;15.40;59.80;;;;;;10284678;28;20106;-56
2023/04/20 21:02:14;;;;;;;4.57;3.15;;;15.40;59.70;;;;;;10251043;28;20074;-55
2023/04/20 21:07:14;;;;;;;5.10;3.85;;;15.40;59.70;;;;;;10284047;28;20047;-56
2023/04/20 21:12:15;;;;;;;4.90;3.97;;;15.40;59.70;;;;;;10284860;28;20018;-56
2023/04/20 21:17:16;;;;;;;5.30;3.83;;;15.40;59.70;;;;;;10266387;28;20035;-55
2023/04/20 21:22:18;;;;;;;4.78;3.90;;;15.40;59.70;;;;;;10283628;28;20149;-53
2023/04/20 21:27:19;;;;;;;5.18;3.75;;;15.40;59.60;;;;;;10283561;28;20230;-56
2023/04/20 21:32:20;;;;;;;7.80;3.60;;;15.40;59.80;;;;;;10265532;28;20665;-54
2023/04/20 21:37:20;;;;;;;4.20;3.28;;;15.30;59.70;;;;;;10282395;28;20026;-56
2023/04/20 21:42:21;;;;;;;4.93;3.97;;;15.30;59.70;;;;;;10283026;28;20602;-56
2023/04/20 21:47:22;;;;;;;4.05;3.15;;;15.30;59.70;;;;;;10282712;28;20573;-55
2023/04/20 21:52:23;;;;;;;5.55;4.35;;;15.30;59.80;;;;;;10282869;28;20109;-55
2023/04/20 21:57:24;;;;;;;4.03;3.38;;;15.30;59.80;;;;;;10282387;28;20027;-55
2023/04/20 22:02:25;;;;;;;5.00;4.03;;;15.30;59.80;;;;;;10279588;28;20086;-55
2023/04/20 22:07:26;;;;;;;4.07;3.13;;;15.30;59.80;;;;;;10265251;28;20509;-56
2023/04/20 22:12:27;;;;;;;5.50;3.25;;;15.30;59.90;;;;;;10281628;28;20023;-56
2023/04/20 22:17:28;;;;;;;6.60;4.25;;;15.30;60.00;;;;;;10281902;28;20098;-55
2023/04/20 22:22:29;;;;;;;5.40;3.30;;;15.30;60.10;;;;;;10280385;28;20038;-56
2023/04/20 22:27:31;;;;;;;4.60;3.45;;;15.30;60.10;;;;;;10280859;28;20113;-55
2023/04/20 22:32:32;;;;;;;4.72;3.67;;;15.30;60.20;;;;;;10263903;28;20114;-54
2023/04/20 22:37:34;;;;;;;5.28;4.07;;;15.30;60.20;;;;;;10280939;28;20019;-55
2023/04/20 22:42:35;;;;;;;4.55;3.40;;;15.30;60.30;;;;;;10281174;28;20022;-55
2023/04/20 22:47:36;;;;;;;5.20;3.88;;;15.30;60.40;;;;;;10280210;28;20126;-54
2023/04/20 22:52:37;;;;;;;5.30;3.58;;;15.20;60.40;;;;;;10280237;28;20526;-56
2023/04/20 22:57:38;;;;;;;4.85;3.95;;;15.20;60.50;;;;;;10280103;28;20102;-54
2023/04/20 23:02:39;;;;;;;4.65;3.30;;;15.20;60.50;;;;;;10279963;28;20030;-54
2023/04/20 23:07:44;;;;;;;4.38;3.30;;;15.20;60.70;;;;;;10280196;28;20486;-55
2023/04/20 23:12:45;;;;;;;4.82;3.47;;;15.20;60.70;;;;;;10280030;28;20573;-55
2023/04/20 23:17:46;;;;;;;4.40;3.90;;;15.20;60.80;;;;;;10280466;28;20042;-56
2023/04/20 23:22:47;;;;;;;4.00;3.38;;;15.20;61.00;;;;;;10260911;28;20123;-54
2023/04/20 23:27:47;;;;;;;5.13;4.13;;;15.20;61.10;;;;;;10277740;28;20066;-54
2023/04/20 23:32:48;;;;;;;5.25;4.13;;;15.20;61.10;;;;;;10278018;28;20537;-56
2023/04/20 23:37:49;;;;;;;6.82;4.03;;;15.20;61.10;;;;;;10262715;28;20070;-55
2023/04/20 23:42:50;;;;;;;5.97;4.32;;;15.20;61.20;;;;;;10279074;28;20093;-56
2023/04/20 23:47:50;;;;;;;4.38;3.28;;;15.20;61.20;;;;;;10279486;28;20086;-54
2023/04/20 23:52:51;;;;;;;4.85;3.60;;;15.20;61.30;;;;;;10279155;28;20113;-54
2023/04/20 23:57:52;;;;;;;4.97;3.60;;;15.20;61.40;;;;;;10279211;28;20461;-55
